createdAt,value
2018-07-13T00:01:50.277Z,19.17
2018-07-13T00:04:25.682Z,19.02
2018-07-13T00:06:53.789Z,18.97
2018-07-13T00:09:21.897Z,18.98
2018-07-13T00:11:50.072Z,19.04
2018-07-13T00:14:23.202Z,19.00
2018-07-13T00:16:52.463Z,18.80
2018-07-13T00:19:21.135Z,18.63
2018-07-13T00:21:49.289Z,18.62
2018-07-13T00:24:17.769Z,18.50
2018-07-13T00:26:45.835Z,18.39
2018-07-13T00:29:13.905Z,18.30
2018-07-13T00:31:42.774Z,18.39
2018-07-13T00:34:10.848Z,18.55
2018-07-13T00:36:38.921Z,18.43
2018-07-13T00:39:08.191Z,18.25
2018-07-13T00:41:36.260Z,18.15
2018-07-13T00:44:04.887Z,17.99
2018-07-13T00:46:32.975Z,17.86
2018-07-13T00:49:01.030Z,17.79
2018-07-13T00:51:29.087Z,17.70
2018-07-13T00:53:57.175Z,17.63
2018-07-13T00:56:25.250Z,17.68
2018-07-13T00:58:53.314Z,17.70
2018-07-13T01:01:21.375Z,17.65
2018-07-13T01:03:49.438Z,17.57
2018-07-13T01:06:17.514Z,17.65
2018-07-13T01:08:45.607Z,17.61
2018-07-13T01:11:13.682Z,17.51
2018-07-13T01:13:41.756Z,17.59
2018-07-13T01:16:09.828Z,17.62
2018-07-13T01:18:37.886Z,17.68
2018-07-13T01:21:06.044Z,17.69
2018-07-13T01:23:34.111Z,17.63
2018-07-13T01:26:02.184Z,17.60
2018-07-13T01:28:30.267Z,17.60
2018-07-13T01:30:58.369Z,17.56
2018-07-13T01:33:26.432Z,17.44
2018-07-13T01:35:54.520Z,17.33
2018-07-13T01:38:22.598Z,17.32
2018-07-13T01:40:50.688Z,17.20
2018-07-13T01:43:18.759Z,17.17
2018-07-13T01:45:46.847Z,17.26
2018-07-13T01:48:14.914Z,17.30
2018-07-13T01:50:42.994Z,17.25
2018-07-13T01:53:11.101Z,17.25
2018-07-13T01:55:39.258Z,17.15
2018-07-13T01:58:07.286Z,17.07
2018-07-13T02:00:35.344Z,16.87
2018-07-13T02:03:03.426Z,16.92
2018-07-13T02:05:31.528Z,16.81
2018-07-13T02:07:59.652Z,16.86
2018-07-13T02:10:27.715Z,16.71
2018-07-13T02:12:55.784Z,16.75
2018-07-13T02:15:23.864Z,16.60
2018-07-13T02:17:51.993Z,16.73
2018-07-13T02:20:20.049Z,16.60
2018-07-13T02:22:48.126Z,16.70
2018-07-13T02:25:16.183Z,16.78
2018-07-13T02:27:44.251Z,16.83
2018-07-13T02:30:12.319Z,16.82
2018-07-13T02:32:40.448Z,16.88
2018-07-13T02:35:08.527Z,16.91
2018-07-13T02:37:36.597Z,16.90
2018-07-13T02:40:04.889Z,16.88
2018-07-13T02:42:32.964Z,16.90
2018-07-13T02:45:01.017Z,16.91
2018-07-13T02:47:29.076Z,16.92
2018-07-13T02:49:57.152Z,16.93
2018-07-13T02:52:25.227Z,16.65
2018-07-13T02:54:53.323Z,16.64
2018-07-13T02:57:21.407Z,16.66
2018-07-13T02:59:49.459Z,16.54
2018-07-13T03:02:17.523Z,16.49
2018-07-13T03:04:45.584Z,16.48
2018-07-13T03:07:13.735Z,16.56
2018-07-13T03:09:41.806Z,16.54
2018-07-13T03:12:09.892Z,16.58
2018-07-13T03:14:38.150Z,16.57
2018-07-13T03:17:06.252Z,16.32
2018-07-13T03:19:34.316Z,16.09
2018-07-13T03:22:02.466Z,16.04
2018-07-13T03:24:30.521Z,15.97
2018-07-13T03:26:58.618Z,15.90
2018-07-13T03:29:26.680Z,15.88
2018-07-13T03:31:54.758Z,15.90
2018-07-13T03:34:22.830Z,16.05
2018-07-13T03:36:50.928Z,16.15
2018-07-13T03:39:18.995Z,16.14
2018-07-13T03:41:47.079Z,16.16
2018-07-13T03:44:15.159Z,16.14
2018-07-13T03:46:43.231Z,16.18
2018-07-13T03:49:11.290Z,16.25
2018-07-13T03:51:39.407Z,16.28
2018-07-13T03:54:07.467Z,16.24
2018-07-13T03:56:35.559Z,16.24
2018-07-13T03:59:03.715Z,16.17
2018-07-13T04:01:31.783Z,16.16
2018-07-13T04:03:59.880Z,16.18
2018-07-13T04:06:27.998Z,16.18
2018-07-13T04:08:56.017Z,16.21
2018-07-13T04:11:24.084Z,16.22
2018-07-13T04:13:52.192Z,16.25
2018-07-13T04:16:20.843Z,16.24
2018-07-13T04:18:48.941Z,16.36
2018-07-13T04:21:17.009Z,16.50
2018-07-13T04:23:45.071Z,16.50
2018-07-13T04:26:13.139Z,16.47
2018-07-13T04:28:41.317Z,16.54
2018-07-13T04:31:09.268Z,16.60
2018-07-13T04:33:37.463Z,16.65
2018-07-13T04:36:05.499Z,16.74
2018-07-13T04:38:33.571Z,16.80
2018-07-13T04:41:01.743Z,16.81
2018-07-13T04:43:29.763Z,16.89
2018-07-13T04:45:57.848Z,16.92
2018-07-13T04:48:25.928Z,16.96
2018-07-13T04:50:54.027Z,17.04
2018-07-13T04:53:22.115Z,17.02
2018-07-13T04:55:50.190Z,17.03
2018-07-13T04:58:18.275Z,17.03
2018-07-13T05:00:46.337Z,17.19
2018-07-13T05:03:14.404Z,17.28
2018-07-13T05:05:42.469Z,17.24
2018-07-13T05:08:10.541Z,17.39
2018-07-13T05:10:38.613Z,17.47
2018-07-13T05:13:06.727Z,17.54
2018-07-13T05:15:34.793Z,17.50
2018-07-13T05:18:02.866Z,17.52
2018-07-13T05:20:30.938Z,17.59
2018-07-13T05:22:59.027Z,17.79
2018-07-13T05:25:27.147Z,17.94
2018-07-13T05:27:55.399Z,18.09
2018-07-13T05:30:23.452Z,18.20
2018-07-13T05:32:51.622Z,18.31
2018-07-13T05:35:19.792Z,18.44
2018-07-13T05:37:47.980Z,18.51
2018-07-13T05:40:16.122Z,18.49
2018-07-13T05:42:44.216Z,18.54
2018-07-13T05:45:12.355Z,18.69
2018-07-13T05:47:40.468Z,18.98
2018-07-13T05:50:08.625Z,19.13
2018-07-13T05:52:36.698Z,19.18
2018-07-13T05:55:04.800Z,19.24
2018-07-13T05:57:32.883Z,19.28
2018-07-13T06:00:00.990Z,19.33
2018-07-13T06:02:29.054Z,19.41
2018-07-13T06:04:57.135Z,19.60
2018-07-13T06:07:25.763Z,19.67
2018-07-13T06:09:53.864Z,19.79
2018-07-13T06:12:21.982Z,19.86
2018-07-13T06:14:50.147Z,19.94
2018-07-13T06:17:18.238Z,20.00
2018-07-13T06:19:46.290Z,20.14
2018-07-13T06:22:14.359Z,20.32
2018-07-13T06:24:42.462Z,20.41
2018-07-13T06:27:10.572Z,20.37
2018-07-13T06:29:38.635Z,20.48
2018-07-13T06:32:06.744Z,20.56
2018-07-13T06:34:34.900Z,20.51
2018-07-13T06:37:03.013Z,20.76
2018-07-13T06:39:31.143Z,20.93
2018-07-13T06:41:59.207Z,21.05
2018-07-13T06:44:27.350Z,21.00
2018-07-13T06:46:55.478Z,21.09
2018-07-13T06:49:23.551Z,21.22
2018-07-13T06:51:51.691Z,21.26
2018-07-13T06:54:19.807Z,21.43
2018-07-13T06:56:47.932Z,21.44
2018-07-13T06:59:17.326Z,21.47
2018-07-13T07:01:45.779Z,21.62
2018-07-13T07:04:35.930Z,21.73
2018-07-13T07:07:17.805Z,21.96
2018-07-13T07:09:47.531Z,21.61
2018-07-13T07:12:52.826Z,21.82
2018-07-13T07:15:21.728Z,22.02
2018-07-13T07:17:49.870Z,21.96
2018-07-13T07:20:17.890Z,22.08
2018-07-13T07:22:46.646Z,22.34
2018-07-13T07:25:15.334Z,22.39
2018-07-13T07:27:43.914Z,22.58
2018-07-13T07:30:12.632Z,22.60
2018-07-13T07:32:40.683Z,22.46
2018-07-13T07:35:09.393Z,22.61
2018-07-13T07:37:37.772Z,22.59
2018-07-13T07:40:05.943Z,22.65
2018-07-13T07:42:34.183Z,22.42
2018-07-13T07:45:02.317Z,22.50
2018-07-13T07:47:30.385Z,22.68
2018-07-13T07:49:58.591Z,22.80
2018-07-13T07:52:26.706Z,22.88
2018-07-13T07:54:55.042Z,23.06
2018-07-13T07:57:23.774Z,23.08
2018-07-13T07:59:52.028Z,23.10
2018-07-13T08:02:20.909Z,23.26
2018-07-13T08:04:49.152Z,23.29
2018-07-13T08:07:17.567Z,23.36
2018-07-13T08:09:45.466Z,23.36
2018-07-13T08:12:13.531Z,23.54
2018-07-13T08:14:41.690Z,23.65
2018-07-13T08:17:09.754Z,23.64
2018-07-13T08:19:38.037Z,23.60
2018-07-13T08:22:14.607Z,23.61
2018-07-13T08:24:43.927Z,23.62
2018-07-13T08:27:15.699Z,23.68
2018-07-13T08:29:43.786Z,23.77
2018-07-13T08:32:11.879Z,23.81
2018-07-13T08:34:39.955Z,23.87
2018-07-13T08:37:08.171Z,24.05
2018-07-13T08:39:36.387Z,24.04
2018-07-13T08:42:04.611Z,24.13
2018-07-13T08:44:32.978Z,24.16
2018-07-13T08:47:01.193Z,24.19
2018-07-13T08:49:29.353Z,24.13
2018-07-13T08:51:57.553Z,24.34
2018-07-13T08:54:26.407Z,24.29
2018-07-13T08:56:55.114Z,24.18
2018-07-13T08:59:24.513Z,24.24
2018-07-13T09:01:52.706Z,24.38
2018-07-13T09:04:20.958Z,24.46
2018-07-13T09:06:49.140Z,24.56
2018-07-13T09:09:18.353Z,24.68
2018-07-13T09:11:47.174Z,24.79
2018-07-13T09:14:15.371Z,24.96
2018-07-13T09:16:43.565Z,25.04
2018-07-13T09:19:11.743Z,25.01
2018-07-13T09:21:39.928Z,25.05
2018-07-13T09:24:08.131Z,24.99
2018-07-13T09:26:36.492Z,24.97
2018-07-13T09:29:04.664Z,25.09
2018-07-13T09:31:32.797Z,25.25
2018-07-13T09:34:00.942Z,25.20
2018-07-13T09:36:29.181Z,25.27
2018-07-13T09:38:57.368Z,25.34
2018-07-13T09:41:25.488Z,25.46
2018-07-13T09:43:53.562Z,25.46
2018-07-13T09:46:21.621Z,25.49
2018-07-13T09:48:49.703Z,25.45
2018-07-13T09:51:18.527Z,25.40
2018-07-13T09:53:46.697Z,25.54
2018-07-13T09:56:17.184Z,25.62
2018-07-13T09:58:45.327Z,25.82
2018-07-13T10:01:20.395Z,25.99
2018-07-13T10:03:48.503Z,26.06
2018-07-13T10:06:16.589Z,26.10
2018-07-13T10:08:44.694Z,26.11
2018-07-13T10:11:12.745Z,26.30
2018-07-13T10:13:40.967Z,26.40
2018-07-13T10:16:09.061Z,26.44
2018-07-13T10:18:38.702Z,26.58
2018-07-13T10:21:07.963Z,26.56
2018-07-13T10:23:36.152Z,26.59
2018-07-13T10:26:08.247Z,26.58
2018-07-13T10:28:38.686Z,26.61
2018-07-13T10:31:07.106Z,26.78
2018-07-13T10:33:36.172Z,26.99
2018-07-13T10:36:04.891Z,27.15
2018-07-13T10:38:33.063Z,27.25
2018-07-13T10:41:01.902Z,27.27
2018-07-13T10:43:30.142Z,26.93
2018-07-13T10:45:58.356Z,27.26
2018-07-13T10:48:26.543Z,27.26
2018-07-13T10:50:54.703Z,27.47
2018-07-13T10:53:22.898Z,27.60
2018-07-13T10:55:51.020Z,27.59
2018-07-13T10:58:19.224Z,27.60
2018-07-13T11:00:47.427Z,27.57
2018-07-13T11:03:15.683Z,27.67
2018-07-13T11:05:43.889Z,27.72
2018-07-13T11:08:12.120Z,27.35
2018-07-13T11:10:40.328Z,27.47
2018-07-13T11:13:08.568Z,27.41
2018-07-13T11:15:36.793Z,27.56
2018-07-13T11:18:05.145Z,27.63
2018-07-13T11:20:33.340Z,27.78
2018-07-13T11:23:01.524Z,28.00
2018-07-13T11:25:29.881Z,27.94
2018-07-13T11:27:58.113Z,28.03
2018-07-13T11:30:26.292Z,27.76
2018-07-13T11:32:54.524Z,27.52
2018-07-13T11:35:22.778Z,27.61
2018-07-13T11:37:51.005Z,27.95
2018-07-13T11:40:19.198Z,27.96
2018-07-13T11:42:47.401Z,28.02
2018-07-13T11:45:15.602Z,27.97
2018-07-13T11:47:45.016Z,27.92
2018-07-13T11:50:13.216Z,28.00
2018-07-13T11:52:41.441Z,28.27
2018-07-13T11:55:09.672Z,28.40
2018-07-13T11:57:38.978Z,28.51
2018-07-13T12:00:07.888Z,28.38
2018-07-13T12:02:36.215Z,28.32
2018-07-13T12:05:04.444Z,28.29
2018-07-13T12:07:32.696Z,28.49
2018-07-13T12:10:00.892Z,28.47
2018-07-13T12:12:29.138Z,28.68
2018-07-13T12:14:57.319Z,28.71
2018-07-13T12:17:25.572Z,28.72
2018-07-13T12:19:53.738Z,28.52
2018-07-13T12:22:22.012Z,28.38
2018-07-13T12:24:50.192Z,28.67
2018-07-13T12:27:18.449Z,28.71
2018-07-13T12:29:46.625Z,28.82
2018-07-13T12:32:14.837Z,28.71
2018-07-13T12:34:43.067Z,28.46
2018-07-13T12:37:11.261Z,28.61
2018-07-13T12:39:39.736Z,28.69
2018-07-13T12:42:07.909Z,28.68
2018-07-13T12:44:36.112Z,28.90
2018-07-13T12:47:04.330Z,28.63
2018-07-13T12:49:32.544Z,28.71
2018-07-13T12:52:00.812Z,28.41
2018-07-13T12:54:29.018Z,28.26
2018-07-13T12:56:57.234Z,28.24
2018-07-13T12:59:25.453Z,28.43
2018-07-13T13:01:53.660Z,28.57
2018-07-13T13:04:21.871Z,28.23
2018-07-13T13:06:50.048Z,28.40
2018-07-13T13:09:18.328Z,28.69
2018-07-13T13:11:46.503Z,28.82
2018-07-13T13:14:14.685Z,28.60
2018-07-13T13:16:42.871Z,28.93
2018-07-13T13:19:11.071Z,29.04
2018-07-13T13:21:39.548Z,29.09
2018-07-13T13:24:07.744Z,29.10
2018-07-13T13:26:35.956Z,28.89
2018-07-13T13:29:04.388Z,28.89
2018-07-13T13:31:32.605Z,28.94
2018-07-13T13:34:00.804Z,29.16
2018-07-13T13:36:28.976Z,29.33
2018-07-13T13:38:57.206Z,29.37
2018-07-13T13:41:25.399Z,29.32
2018-07-13T13:43:53.588Z,29.43
2018-07-13T13:46:21.804Z,29.53
2018-07-13T13:48:49.960Z,29.54
2018-07-13T13:51:18.156Z,29.64
2018-07-13T13:53:46.363Z,29.70
2018-07-13T13:56:14.537Z,29.55
2018-07-13T13:58:42.736Z,28.96
2018-07-13T14:01:10.928Z,28.73
2018-07-13T14:03:39.131Z,28.67
2018-07-13T14:06:07.312Z,28.68
2018-07-13T14:08:35.502Z,28.78
2018-07-13T14:11:03.743Z,28.85
2018-07-13T14:13:31.980Z,29.03
2018-07-13T14:16:00.232Z,29.17
2018-07-13T14:18:28.448Z,29.07
2018-07-13T14:20:56.664Z,29.04
2018-07-13T14:23:24.897Z,29.04
2018-07-13T14:25:53.061Z,29.04
2018-07-13T14:28:21.328Z,29.04
2018-07-13T14:30:49.576Z,28.74
2018-07-13T14:33:17.798Z,28.40
2018-07-13T14:35:46.032Z,28.10
2018-07-13T14:38:14.225Z,27.98
2018-07-13T14:40:42.509Z,27.85
2018-07-13T14:43:10.827Z,27.74
2018-07-13T14:45:39.044Z,27.77
2018-07-13T14:48:07.293Z,27.66
2018-07-13T14:50:35.482Z,27.55
2018-07-13T14:53:06.937Z,27.57
2018-07-13T14:55:35.924Z,27.40
2018-07-13T14:58:04.123Z,27.11
2018-07-13T15:00:33.351Z,26.74
2018-07-13T15:03:03.560Z,26.47
2018-07-13T15:05:31.834Z,26.35
2018-07-13T15:08:00.027Z,26.29
2018-07-13T15:10:28.216Z,26.25
2018-07-13T15:12:56.443Z,26.08
2018-07-13T15:15:24.638Z,26.05
2018-07-13T15:17:52.772Z,25.96
2018-07-13T15:20:20.866Z,25.99
2018-07-13T15:22:48.918Z,25.99
2018-07-13T15:25:16.975Z,26.00
2018-07-13T15:27:45.065Z,26.08
2018-07-13T15:30:13.145Z,26.24
2018-07-13T15:32:41.227Z,26.24
2018-07-13T15:35:09.438Z,26.15
2018-07-13T15:37:37.504Z,26.06
2018-07-13T15:40:05.599Z,25.98
2018-07-13T15:42:33.900Z,26.02
2018-07-13T15:45:02.408Z,26.11
2018-07-13T15:47:30.895Z,26.17
2018-07-13T15:49:59.152Z,26.31
2018-07-13T15:52:27.337Z,26.36
2018-07-13T15:54:55.711Z,26.47
2018-07-13T15:57:29.113Z,26.52
2018-07-13T16:00:04.934Z,26.49
2018-07-13T16:02:40.584Z,26.44
2018-07-13T16:05:09.095Z,26.43
2018-07-13T16:07:49.126Z,26.47
2018-07-13T16:10:26.053Z,26.77
2018-07-13T16:13:00.046Z,27.03
2018-07-13T16:15:42.577Z,27.21
2018-07-13T16:18:50.129Z,27.28
2018-07-13T16:21:50.945Z,27.43
2018-07-13T16:24:20.785Z,27.37
2018-07-13T16:26:52.376Z,27.55
2018-07-13T16:29:22.132Z,27.54
2018-07-13T16:31:59.924Z,27.40
2018-07-13T16:34:29.475Z,27.37
2018-07-13T16:37:09.438Z,27.24
2018-07-13T16:40:05.918Z,27.10
2018-07-13T16:42:42.032Z,27.02
2018-07-13T16:45:18.722Z,26.95
2018-07-13T16:48:11.451Z,26.97
2018-07-13T16:51:08.480Z,26.96
2018-07-13T16:53:46.751Z,26.93
2018-07-13T17:02:32.036Z,26.92
2018-07-13T17:05:22.288Z,26.87
2018-07-13T17:13:15.065Z,27.29
2018-07-13T17:16:10.813Z,27.36
2018-07-13T17:18:45.264Z,27.24
2018-07-13T17:24:10.573Z,27.07
2018-07-13T17:29:45.582Z,26.91
2018-07-13T17:32:18.770Z,26.78
2018-07-13T17:34:48.138Z,26.77
2018-07-13T17:37:20.789Z,26.67
2018-07-13T17:40:00.567Z,26.55
2018-07-13T17:42:33.242Z,26.70
2018-07-13T17:45:04.425Z,26.72
2018-07-13T17:47:34.840Z,26.62
2018-07-13T17:50:11.152Z,26.55
2018-07-13T17:52:42.779Z,26.53
2018-07-13T17:55:12.773Z,26.48
2018-07-13T17:57:41.276Z,26.47
2018-07-13T18:00:09.532Z,26.56
2018-07-13T18:02:38.141Z,26.45
2018-07-13T18:05:06.625Z,26.41
2018-07-13T18:07:35.176Z,26.21
2018-07-13T18:10:07.364Z,26.23
2018-07-13T18:12:35.628Z,26.31
2018-07-13T18:15:04.798Z,26.32
2018-07-13T18:17:32.992Z,26.39
2018-07-13T18:20:01.697Z,26.29
2018-07-13T18:22:29.929Z,26.19
2018-07-13T18:24:58.229Z,26.11
2018-07-13T18:27:26.419Z,26.14
2018-07-13T18:29:54.705Z,26.12
2018-07-13T18:32:22.983Z,26.10
2018-07-13T18:34:51.136Z,26.02
2018-07-13T18:37:19.329Z,25.91
2018-07-13T18:39:47.560Z,25.92
2018-07-13T18:42:15.756Z,25.78
2018-07-13T18:44:44.083Z,25.62
2018-07-13T18:47:12.512Z,25.49
2018-07-13T18:49:40.786Z,25.40
2018-07-13T18:52:09.463Z,25.38
2018-07-13T18:54:37.736Z,25.20
2018-07-13T18:57:06.310Z,25.18
2018-07-13T18:59:35.640Z,25.03
2018-07-13T19:02:04.105Z,24.85
2018-07-13T19:04:32.369Z,24.71
2018-07-13T19:07:04.322Z,24.59
2018-07-13T19:09:35.810Z,24.44
2018-07-13T19:12:06.848Z,24.31
2018-07-13T19:14:36.330Z,24.23
2018-07-13T19:17:11.929Z,24.07
2018-07-13T19:19:42.940Z,23.89
2018-07-13T19:22:13.432Z,23.78
2018-07-13T19:24:43.380Z,23.63
2018-07-13T19:30:18.007Z,23.34
2018-07-13T19:32:46.348Z,23.22
2018-07-13T19:35:16.297Z,23.27
2018-07-13T19:37:46.673Z,23.07
2018-07-13T19:40:15.035Z,22.93
2018-07-13T19:42:45.616Z,22.84
2018-07-13T19:45:14.021Z,22.75
2018-07-13T19:47:44.466Z,22.63
2018-07-13T19:50:14.992Z,22.55
2018-07-13T19:52:45.393Z,22.52
2018-07-13T19:55:13.712Z,22.42
2018-07-13T19:57:43.086Z,22.13
2018-07-13T20:00:11.525Z,22.09
2018-07-13T20:02:42.219Z,22.14
2018-07-13T20:05:12.636Z,22.19
2018-07-13T20:07:42.223Z,22.15
2018-07-13T20:10:12.686Z,22.13
2018-07-13T20:12:46.323Z,22.11
2018-07-13T20:15:14.644Z,21.94
2018-07-13T20:17:44.610Z,21.87
2018-07-13T20:20:13.724Z,21.74
2018-07-13T20:22:42.039Z,21.75
2018-07-13T20:25:10.400Z,21.58
2018-07-13T20:27:38.795Z,21.73
2018-07-13T20:30:07.776Z,21.61
2018-07-13T20:32:36.058Z,21.57
2018-07-13T20:35:04.434Z,21.39
2018-07-13T20:37:32.734Z,21.24
2018-07-13T20:40:01.073Z,21.28
2018-07-13T20:42:29.657Z,21.27
2018-07-13T20:44:58.018Z,21.26
2018-07-13T20:47:26.313Z,21.17
2018-07-13T20:49:54.696Z,21.11
2018-07-13T20:52:23.170Z,21.01
2018-07-13T20:54:55.563Z,20.96
2018-07-13T20:57:30.592Z,20.89
2018-07-13T20:59:58.963Z,20.89
2018-07-13T21:02:27.266Z,20.87
2018-07-13T21:04:55.572Z,20.81
2018-07-13T21:07:23.852Z,20.75
2018-07-13T21:09:52.185Z,20.72
2018-07-13T21:12:20.469Z,20.62
2018-07-13T21:14:48.792Z,20.51
2018-07-13T21:17:17.650Z,20.48
2018-07-13T21:19:46.093Z,20.43
2018-07-13T21:22:14.318Z,20.31
2018-07-13T21:24:42.656Z,20.22
2018-07-13T21:27:11.039Z,20.16
2018-07-13T21:29:39.356Z,19.95
2018-07-13T21:32:07.687Z,19.97
2018-07-13T21:34:35.983Z,19.90
2018-07-13T21:37:04.314Z,19.86
2018-07-13T21:39:32.635Z,19.92
2018-07-13T21:42:00.993Z,19.82
2018-07-13T21:44:29.329Z,19.75
2018-07-13T21:46:57.667Z,19.67
2018-07-13T21:49:25.986Z,19.68
2018-07-13T21:51:54.340Z,19.65
2018-07-13T21:54:22.691Z,19.90
2018-07-13T21:56:51.336Z,19.73
2018-07-13T21:59:20.407Z,19.62
2018-07-13T22:01:48.816Z,19.60
2018-07-13T22:04:17.102Z,19.52
2018-07-13T22:06:45.395Z,19.55
2018-07-13T22:09:13.681Z,19.64
2018-07-13T22:11:41.979Z,19.57
2018-07-13T22:14:10.310Z,19.37
2018-07-13T22:16:38.650Z,19.28
2018-07-13T22:19:06.984Z,19.21
2018-07-13T22:21:35.319Z,19.26
2018-07-13T22:24:03.630Z,19.26
2018-07-13T22:26:31.984Z,19.64
2018-07-13T22:29:00.271Z,20.10
2018-07-13T22:31:28.672Z,20.09
2018-07-13T22:33:56.957Z,20.35
2018-07-13T22:36:25.442Z,20.42
2018-07-13T22:38:53.764Z,20.47
2018-07-13T22:41:22.050Z,20.59
2018-07-13T22:43:50.351Z,20.69
2018-07-13T22:46:18.865Z,20.89
2018-07-13T22:48:48.039Z,20.85
2018-07-13T22:51:16.373Z,20.72
2018-07-13T22:53:44.674Z,20.76
2018-07-13T22:56:13.051Z,20.91
2018-07-13T22:58:41.309Z,20.83
2018-07-13T23:01:09.712Z,20.66
2018-07-13T23:03:37.994Z,20.37
2018-07-13T23:06:06.471Z,20.29
2018-07-13T23:08:34.776Z,20.17
2018-07-13T23:11:03.037Z,20.04
2018-07-13T23:13:31.318Z,19.98
2018-07-13T23:15:59.648Z,19.81
2018-07-13T23:18:28.585Z,20.06
2018-07-13T23:20:56.875Z,19.97
2018-07-13T23:23:25.374Z,19.94
2018-07-13T23:25:53.692Z,19.87
2018-07-13T23:28:22.001Z,19.72
2018-07-13T23:30:50.281Z,19.56
2018-07-13T23:33:18.589Z,19.50
2018-07-13T23:35:47.006Z,19.44
2018-07-13T23:38:15.414Z,19.31
2018-07-13T23:40:43.806Z,19.24
2018-07-13T23:43:12.174Z,19.26
2018-07-13T23:45:40.472Z,19.25
2018-07-13T23:48:08.788Z,19.13
2018-07-13T23:50:37.090Z,19.07
2018-07-13T23:53:05.359Z,18.99
2018-07-13T23:55:34.017Z,18.95
2018-07-13T23:58:02.307Z,18.97
